sensor_id;sensor_type;location;lat;lon;timestamp;P1;durP1;ratioP1;P2;durP2;ratioP2
34872;SDS011;21084;51.098;14.506;2022-11-15T07:49:14;167.65;;;71.90;;
34872;SDS011;21084;51.098;14.506;2022-11-15T07:51:53;146.97;;;61.73;;
34872;SDS011;21084;51.098;14.506;2022-11-15T07:54:25;150.65;;;63.95;;
34872;SDS011;21084;51.098;14.506;2022-11-15T08:01:25;116.93;;;51.65;;
34872;SDS011;21084;51.098;14.506;2022-11-15T08:04:32;107.20;;;46.13;;
34872;SDS011;21084;51.098;14.506;2022-11-15T08:07:32;103.50;;;46.97;;
34872;SDS011;21084;51.098;14.506;2022-11-15T08:14:13;77.78;;;36.85;;
34872;SDS011;21084;51.098;14.506;2022-11-15T08:16:50;74.13;;;38.50;;
34872;SDS011;21084;51.098;14.506;2022-11-15T08:19:59;77.15;;;37.17;;
34872;SDS011;21084;51.098;14.506;2022-11-15T08:22:59;74.90;;;37.08;;
34872;SDS011;21084;51.098;14.506;2022-11-15T08:25:50;67.07;;;34.88;;
34872;SDS011;21084;51.098;14.506;2022-11-15T08:28:41;74.65;;;36.53;;
34872;SDS011;21084;51.098;14.506;2022-11-15T08:31:31;70.32;;;36.92;;
34872;SDS011;21084;51.098;14.506;2022-11-15T08:39:09;66.18;;;34.42;;
34872;SDS011;21084;51.098;14.506;2022-11-15T08:42:29;64.50;;;33.40;;
34872;SDS011;21084;51.098;14.506;2022-11-15T08:45:28;62.72;;;32.63;;
34872;SDS011;21084;51.098;14.506;2022-11-15T09:00:31;54.60;;;29.20;;
34872;SDS011;21084;51.098;14.506;2022-11-15T09:03:45;59.40;;;30.10;;
34872;SDS011;21084;51.098;14.506;2022-11-15T09:06:52;55.95;;;29.25;;
34872;SDS011;21084;51.098;14.506;2022-11-15T09:10:13;58.47;;;30.60;;
34872;SDS011;21084;51.098;14.506;2022-11-15T09:17:34;53.85;;;29.40;;
34872;SDS011;21084;51.098;14.506;2022-11-15T09:21:53;51.30;;;27.95;;
34872;SDS011;21084;51.098;14.506;2022-11-15T09:25:05;53.80;;;28.55;;
34872;SDS011;21084;51.098;14.506;2022-11-15T09:32:09;52.28;;;26.65;;
34872;SDS011;21084;51.098;14.506;2022-11-15T09:35:12;49.97;;;27.15;;
34872;SDS011;21084;51.098;14.506;2022-11-15T09:38:05;52.67;;;27.90;;
34872;SDS011;21084;51.098;14.506;2022-11-15T09:41:31;49.33;;;26.85;;
34872;SDS011;21084;51.098;14.506;2022-11-15T09:48:39;45.72;;;24.83;;
34872;SDS011;21084;51.098;14.506;2022-11-15T09:51:49;51.47;;;27.13;;
34872;SDS011;21084;51.098;14.506;2022-11-15T09:54:27;50.78;;;25.13;;
34872;SDS011;21084;51.098;14.506;2022-11-15T09:57:31;51.00;;;26.48;;
34872;SDS011;21084;51.098;14.506;2022-11-15T10:00:40;43.47;;;23.70;;
34872;SDS011;21084;51.098;14.506;2022-11-15T10:04:04;46.58;;;24.98;;
34872;SDS011;21084;51.098;14.506;2022-11-15T10:07:17;43.13;;;23.52;;
34872;SDS011;21084;51.098;14.506;2022-11-15T10:10:24;45.75;;;23.10;;
34872;SDS011;21084;51.098;14.506;2022-11-15T10:13:22;45.03;;;23.95;;
34872;SDS011;21084;51.098;14.506;2022-11-15T10:16:16;43.85;;;24.02;;
34872;SDS011;21084;51.098;14.506;2022-11-15T10:19:16;42.67;;;23.75;;
34872;SDS011;21084;51.098;14.506;2022-11-15T10:25:25;44.90;;;23.27;;
34872;SDS011;21084;51.098;14.506;2022-11-15T10:28:03;44.63;;;25.13;;
34872;SDS011;21084;51.098;14.506;2022-11-15T10:31:02;41.85;;;22.83;;
34872;SDS011;21084;51.098;14.506;2022-11-15T10:33:39;41.03;;;23.70;;
34872;SDS011;21084;51.098;14.506;2022-11-15T10:36:18;45.58;;;23.60;;
34872;SDS011;21084;51.098;14.506;2022-11-15T10:38:59;44.90;;;24.63;;
34872;SDS011;21084;51.098;14.506;2022-11-15T10:44:25;42.90;;;24.13;;
34872;SDS011;21084;51.098;14.506;2022-11-15T10:50:06;44.60;;;24.55;;
34872;SDS011;21084;51.098;14.506;2022-11-15T10:52:56;38.13;;;21.80;;
34872;SDS011;21084;51.098;14.506;2022-11-15T10:55:29;39.55;;;23.25;;
34872;SDS011;21084;51.098;14.506;2022-11-15T10:58:02;44.53;;;24.30;;
34872;SDS011;21084;51.098;14.506;2022-11-15T11:00:34;44.75;;;23.50;;
34872;SDS011;21084;51.098;14.506;2022-11-15T11:04:13;44.33;;;23.60;;
34872;SDS011;21084;51.098;14.506;2022-11-15T11:06:48;43.80;;;24.58;;
34872;SDS011;21084;51.098;14.506;2022-11-15T11:09:28;42.45;;;23.83;;
34872;SDS011;21084;51.098;14.506;2022-11-15T11:12:03;40.42;;;22.73;;
34872;SDS011;21084;51.098;14.506;2022-11-15T11:14:33;40.28;;;23.52;;
34872;SDS011;21084;51.098;14.506;2022-11-15T11:17:10;41.83;;;24.00;;
34872;SDS011;21084;51.098;14.506;2022-11-15T11:19:51;42.85;;;23.35;;
34872;SDS011;21084;51.098;14.506;2022-11-15T11:22:30;37.22;;;21.38;;
34872;SDS011;21084;51.098;14.506;2022-11-15T11:25:11;38.53;;;21.58;;
34872;SDS011;21084;51.098;14.506;2022-11-15T11:28:09;34.40;;;21.08;;
34872;SDS011;21084;51.098;14.506;2022-11-15T11:30:54;35.78;;;20.23;;
34872;SDS011;21084;51.098;14.506;2022-11-15T11:33:33;39.45;;;21.40;;
34872;SDS011;21084;51.098;14.506;2022-11-15T11:36:13;33.60;;;20.05;;
34872;SDS011;21084;51.098;14.506;2022-11-15T11:39:15;35.95;;;20.75;;
34872;SDS011;21084;51.098;14.506;2022-11-15T11:42:01;34.65;;;19.77;;
34872;SDS011;21084;51.098;14.506;2022-11-15T11:44:50;35.78;;;20.10;;
34872;SDS011;21084;51.098;14.506;2022-11-15T11:47:39;34.42;;;19.90;;
34872;SDS011;21084;51.098;14.506;2022-11-15T11:54:03;27.67;;;17.42;;
34872;SDS011;21084;51.098;14.506;2022-11-15T11:56:48;33.45;;;19.48;;
34872;SDS011;21084;51.098;14.506;2022-11-15T11:59:28;30.67;;;18.67;;
34872;SDS011;21084;51.098;14.506;2022-11-15T12:03:09;31.58;;;18.45;;
34872;SDS011;21084;51.098;14.506;2022-11-15T12:45:46;24.00;;;15.13;;
34872;SDS011;21084;51.098;14.506;2022-11-15T12:58:55;22.83;;;14.48;;
34872;SDS011;21084;51.098;14.506;2022-11-15T13:08:51;23.42;;;14.15;;
34872;SDS011;21084;51.098;14.506;2022-11-15T13:21:22;22.95;;;14.90;;
34872;SDS011;21084;51.098;14.506;2022-11-15T13:24:39;22.65;;;14.52;;
34872;SDS011;21084;51.098;14.506;2022-11-15T13:42:23;21.27;;;13.93;;
34872;SDS011;21084;51.098;14.506;2022-11-15T13:44:57;22.05;;;14.98;;
34872;SDS011;21084;51.098;14.506;2022-11-15T13:47:27;23.95;;;15.25;;
34872;SDS011;21084;51.098;14.506;2022-11-15T13:49:58;24.30;;;15.43;;
34872;SDS011;21084;51.098;14.506;2022-11-15T13:54:59;22.80;;;15.93;;
34872;SDS011;21084;51.098;14.506;2022-11-15T13:57:32;26.83;;;16.25;;
34872;SDS011;21084;51.098;14.506;2022-11-15T14:15:26;32.05;;;19.30;;
